Terminal Aerodrome Forecast
Issued by NWS

Home | Current Version | Previous Version | Text Only | Print | Product List | Glossary On
Versions: 1 2 3 4 5 6 7 8 9 10 11 12 13 14 15 16 17
000
FTUS45 KVEF 010527
TAFHND
TAF
KHND 010527Z 0106/0206 VRB05KT P6SM SCT080 BKN120
     FM011200 03007KT P6SM SCT100 BKN120
     FM020200 04006KT P6SM FEW100 SCT120=

USA.gov is the U.S. government's official web portal to all federal, state and local government web resources and services.